Time;durP1;ratioP1;P1;durP2;ratioP2;P2;SDS_P1;SDS_P2;PMS_P1;PMS_P2;Temp;Humidity;BMP_temperature;BMP_pressure;BME280_temperature;BME280_humidity;BME280_pressure;Samples;Min_cycle;Max_cycle;Signal;HPM_P1;HPM_P2
2022/05/03 00:00:14;;;;;;;14.07;11.65;;;;;;;9.38;87.10;100932.28;696457;28;957;-46
2022/05/03 00:00:37;;;;;;;13.25;11.80;;;;;;;9.37;87.44;100920.97;694185;28;1388;-44
2022/05/03 00:01:21;;;;;;;13.70;12.15;;;;;;;9.38;87.26;100932.28;692915;28;1290;-45
2022/05/03 00:02:07;;;;;;;14.70;11.90;;;;;;;9.41;87.53;100921.84;694852;28;4805;-45
2022/05/03 00:02:30;;;;;;;14.95;12.50;;;;;;;9.40;87.03;100922.72;693066;28;1428;-45
2022/05/03 00:03:16;;;;;;;15.88;12.23;;;;;;;9.39;86.64;100923.59;694490;28;1269;-44
2022/05/03 00:03:36;;;;;;;13.80;12.30;;;;;;;9.37;86.05;100930.53;699687;28;1113;-45
2022/05/03 00:04:32;;;;;;;13.27;11.87;;;;;;;9.40;85.24;100919.22;697561;28;1463;-45
2022/05/03 00:05:03;;;;;;;14.07;11.77;;;;;;;9.41;84.89;100921.84;681021;28;5129;-45
2022/05/03 00:05:53;;;;;;;13.40;11.95;;;;;;;9.43;84.68;100920.13;680759;28;1599;-47
2022/05/03 00:06:28;;;;;;;14.77;11.95;;;;;;;9.43;85.01;100922.75;701459;28;1134;-45
2022/05/03 00:07:12;;;;;;;13.27;11.65;;;;;;;9.44;85.02;100924.50;700253;28;1343;-45
2022/05/03 00:07:42;;;;;;;13.90;11.82;;;;;;;9.42;84.83;100926.22;698908;28;1046;-45
2022/05/03 00:08:09;;;;;;;16.10;12.27;;;;;;;9.43;84.27;100922.75;700388;28;1261;-44
2022/05/03 00:08:41;;;;;;;16.17;11.93;;;;;;;9.41;85.48;100927.06;700783;28;1062;-45
2022/05/03 00:09:05;;;;;;;13.82;11.80;;;;;;;9.40;84.60;100920.13;699627;28;958;-44
2022/05/03 00:09:44;;;;;;;13.75;11.77;;;;;;;9.42;85.32;100917.53;700322;28;1177;-46
2022/05/03 00:10:12;;;;;;;16.25;11.80;;;;;;;9.45;85.05;100928.81;699366;27;4343;-45
2022/05/03 00:11:09;;;;;;;14.07;12.18;;;;;;;9.46;83.93;100924.50;699966;28;1348;-46
2022/05/03 00:11:39;;;;;;;15.15;11.70;;;;;;;9.47;83.68;100926.22;698198;28;1471;-44
2022/05/03 00:12:05;;;;;;;13.50;11.63;;;;;;;9.46;83.61;100922.75;696020;28;902;-46
2022/05/03 00:12:34;;;;;;;15.70;12.55;;;;;;;9.45;83.81;100926.22;699125;28;1066;-44
2022/05/03 00:13:07;;;;;;;13.50;11.70;;;;;;;9.46;84.21;100922.75;697527;28;1258;-44
2022/05/03 00:13:35;;;;;;;13.30;11.65;;;;;;;9.47;84.50;100923.59;696410;28;5065;-47
2022/05/03 00:14:10;;;;;;;13.57;11.80;;;;;;;9.44;84.00;100919.28;696717;28;895;-45
2022/05/03 00:14:38;;;;;;;13.55;11.80;;;;;;;9.47;85.81;100924.50;695560;28;2059;-45
2022/05/03 00:15:00;;;;;;;14.55;11.85;;;;;;;9.48;85.59;100923.59;698377;28;1049;-45
2022/05/03 00:15:22;;;;;;;13.90;11.80;;;;;;;9.47;86.67;100919.28;700436;28;1109;-45
2022/05/03 00:15:43;;;;;;;14.57;12.25;;;;;;;9.46;86.74;100921.88;699011;28;1352;-45
2022/05/03 00:16:05;;;;;;;16.20;12.75;;;;;;;9.45;87.61;100920.13;700658;28;4482;-46
2022/05/03 00:16:26;;;;;;;15.57;12.43;;;;;;;9.44;86.98;100924.50;700322;28;3600;-45
2022/05/03 00:16:49;;;;;;;15.27;11.90;;;;;;;9.46;87.36;100920.13;698824;28;1085;-44
2022/05/03 00:17:10;;;;;;;13.43;11.80;;;;;;;9.48;86.80;100920.13;699343;28;1082;-46
2022/05/03 00:17:32;;;;;;;14.15;12.43;;;;;;;9.46;87.39;100927.97;699830;28;1121;-44
2022/05/03 00:17:53;;;;;;;14.63;12.05;;;;;;;9.48;85.96;100921.00;699392;28;1072;-46
2022/05/03 00:18:14;;;;;;;14.35;12.35;;;;;;;9.47;84.79;100924.50;700054;28;1112;-45
2022/05/03 00:18:35;;;;;;;13.77;12.23;;;;;;;9.46;84.85;100925.34;699998;28;1141;-45
2022/05/03 00:18:55;;;;;;;13.68;11.80;;;;;;;9.43;84.28;100912.31;700413;28;1328;-45
2022/05/03 00:19:16;;;;;;;15.13;12.35;;;;;;;9.44;85.26;100919.28;699991;28;4538;-44
2022/05/03 00:19:37;;;;;;;16.50;12.77;;;;;;;9.42;85.01;100918.38;699047;28;1086;-45
2022/05/03 00:20:02;;;;;;;14.50;12.20;;;;;;;9.44;84.53;100927.09;698816;28;1086;-44
2022/05/03 00:20:23;;;;;;;15.30;12.20;;;;;;;9.43;84.66;100919.25;701683;28;1305;-44
2022/05/03 00:20:46;;;;;;;15.50;12.48;;;;;;;9.44;84.49;100916.66;695343;28;968;-44
2022/05/03 00:21:07;;;;;;;13.65;12.23;;;;;;;9.45;83.95;100913.16;697306;28;1159;-45
2022/05/03 00:21:28;;;;;;;13.80;12.13;;;;;;;9.45;84.55;100914.91;698053;28;1166;-45
2022/05/03 00:21:49;;;;;;;14.23;11.85;;;;;;;9.43;84.46;100914.91;698646;28;962;-45
2022/05/03 00:22:12;;;;;;;14.60;11.85;;;;;;;9.41;84.55;100926.19;699840;28;4277;-45
2022/05/03 00:22:34;;;;;;;13.48;12.07;;;;;;;9.39;84.33;100918.38;700650;28;1086;-45
2022/05/03 00:22:55;;;;;;;13.93;12.43;;;;;;;9.39;84.07;100913.16;699520;28;1918;-46
2022/05/03 00:23:15;;;;;;;15.68;12.80;;;;;;;9.40;84.33;100925.34;698822;28;1067;-44
2022/05/03 00:23:36;;;;;;;16.30;12.52;;;;;;;9.40;84.43;100911.41;701027;28;1148;-44
2022/05/03 00:23:56;;;;;;;14.63;12.20;;;;;;;9.39;84.69;100913.16;700054;28;941;-45
2022/05/03 00:24:18;;;;;;;14.57;12.43;;;;;;;9.39;84.20;100918.38;699901;28;1197;-44
2022/05/03 00:24:39;;;;;;;14.20;12.18;;;;;;;9.40;84.04;100917.50;699566;28;1151;-45
2022/05/03 00:25:00;;;;;;;14.70;12.73;;;;;;;9.41;84.82;100920.97;700042;27;4517;-46
2022/05/03 00:25:21;;;;;;;16.17;12.95;;;;;;;9.40;84.55;100914.91;699132;28;1257;-45
2022/05/03 00:25:44;;;;;;;16.90;12.60;;;;;;;9.39;84.71;100913.16;698479;28;1272;-44
2022/05/03 00:26:06;;;;;;;14.48;12.52;;;;;;;9.40;84.20;100914.00;699313;28;1137;-46
2022/05/03 00:26:28;;;;;;;13.80;12.27;;;;;;;9.40;85.13;100920.13;700130;28;1034;-46
2022/05/03 00:26:48;;;;;;;14.00;12.27;;;;;;;9.40;85.32;100914.91;696658;28;1141;-45
2022/05/03 00:27:09;;;;;;;14.67;12.30;;;;;;;9.36;85.06;100908.78;696002;28;1176;-45
2022/05/03 00:27:29;;;;;;;14.55;12.30;;;;;;;9.37;85.10;100909.66;696705;28;1174;-44
2022/05/03 00:27:51;;;;;;;13.83;12.17;;;;;;;9.36;85.51;100914.00;695511;28;892;-45
2022/05/03 00:28:12;;;;;;;14.52;12.02;;;;;;;9.38;85.96;100916.63;693923;28;4506;-45
2022/05/03 00:28:33;;;;;;;14.55;12.68;;;;;;;9.37;86.06;100914.88;696159;28;1099;-46
2022/05/03 00:28:56;;;;;;;15.15;12.88;;;;;;;9.35;86.67;100908.78;697903;28;1026;-45
2022/05/03 00:29:17;;;;;;;15.68;12.68;;;;;;;9.33;86.60;100913.09;700709;28;844;-44
2022/05/03 00:29:38;;;;;;;15.18;12.95;;;;;;;9.34;86.24;100909.66;699404;28;1174;-45
2022/05/03 00:29:58;;;;;;;14.68;12.82;;;;;;;9.34;86.41;100914.88;700160;28;1088;-45
2022/05/03 00:30:19;;;;;;;15.32;12.55;;;;;;;9.32;89.01;100909.66;699284;28;1141;-45
2022/05/03 00:30:40;;;;;;;14.97;12.73;;;;;;;9.30;89.25;100913.97;699175;28;1116;-44
2022/05/03 00:31:01;;;;;;;13.82;12.30;;;;;;;9.28;88.91;100909.63;699657;27;4395;-45
2022/05/03 00:31:24;;;;;;;13.50;12.02;;;;;;;9.27;87.04;100903.53;699884;28;1254;-44
2022/05/03 00:31:44;;;;;;;15.60;12.40;;;;;;;9.28;86.45;100909.63;699159;28;1059;-44
2022/05/03 00:32:05;;;;;;;14.70;12.00;;;;;;;9.29;86.85;100907.03;700248;28;1034;-45
2022/05/03 00:32:26;;;;;;;14.95;12.45;;;;;;;9.29;86.13;100911.34;698533;28;1369;-44
2022/05/03 00:32:47;;;;;;;15.75;12.52;;;;;;;9.30;86.98;100910.50;699768;28;958;-45
2022/05/03 00:33:09;;;;;;;15.65;12.40;;;;;;;9.29;87.16;100906.13;699864;28;1125;-45
2022/05/03 00:33:33;;;;;;;14.88;12.23;;;;;;;9.28;86.78;100905.28;698871;28;1074;-47
2022/05/03 00:33:55;;;;;;;14.05;12.48;;;;;;;9.31;87.32;100909.63;699621;28;1001;-44
2022/05/03 00:34:16;;;;;;;13.48;12.07;;;;;;;9.33;86.63;100911.41;699377;28;4329;-45
2022/05/03 00:34:38;;;;;;;13.60;12.00;;;;;;;9.34;86.16;100909.66;698576;28;1274;-45
2022/05/03 00:35:02;;;;;;;13.38;11.98;;;;;;;9.35;85.74;100906.19;699742;28;1245;-45
2022/05/03 00:35:23;;;;;;;13.68;11.88;;;;;;;9.35;85.81;100898.34;699972;28;1198;-44
2022/05/03 00:35:44;;;;;;;13.77;12.05;;;;;;;9.36;85.28;100905.31;700007;28;1280;-45
2022/05/03 00:36:04;;;;;;;14.07;11.88;;;;;;;9.37;86.12;100904.44;699597;28;1126;-45
2022/05/03 00:36:25;;;;;;;16.03;12.73;;;;;;;9.38;84.54;100901.81;696934;28;1003;-46
2022/05/03 00:36:45;;;;;;;14.18;12.52;;;;;;;9.38;85.03;100907.03;698472;28;986;-45
2022/05/03 00:37:06;;;;;;;14.00;12.35;;;;;;;9.41;86.10;100902.72;697005;28;4664;-46
2022/05/03 00:37:27;;;;;;;14.87;12.23;;;;;;;9.40;87.96;100903.56;697769;28;1121;-44
2022/05/03 00:37:47;;;;;;;14.85;12.63;;;;;;;9.38;88.09;100899.22;700300;28;975;-45
2022/05/03 00:38:08;;;;;;;13.98;12.40;;;;;;;9.40;87.80;100903.56;698849;28;1074;-44
2022/05/03 00:38:34;;;;;;;14.43;12.33;;;;;;;9.38;86.77;100900.97;700060;28;1284;-44
2022/05/03 00:38:54;;;;;;;14.10;11.98;;;;;;;9.38;85.89;100900.97;700044;28;4588;-45
2022/05/03 00:39:15;;;;;;;14.00;12.20;;;;;;;9.40;85.84;100906.19;701020;28;1351;-44
2022/05/03 00:39:35;;;;;;;13.80;12.40;;;;;;;9.37;87.63;100905.31;700653;28;1106;-45
2022/05/03 00:39:56;;;;;;;15.00;12.87;;;;;;;9.37;86.44;100894.88;700229;28;970;-45
2022/05/03 00:40:18;;;;;;;15.35;12.73;;;;;;;9.34;87.77;100902.69;701444;27;4594;-45
2022/05/03 00:40:47;;;;;;;14.30;12.50;;;;;;;9.34;87.30;100899.22;698759;28;1267;-45
2022/05/03 00:41:13;;;;;;;13.38;11.90;;;;;;;9.34;87.61;100896.59;700069;28;1106;-44
2022/05/03 00:41:44;;;;;;;15.75;12.75;;;;;;;9.33;87.22;100902.69;700269;28;1148;-45
2022/05/03 00:42:14;;;;;;;14.63;12.20;;;;;;;9.33;86.92;100897.47;699915;28;1642;-44
2022/05/03 00:42:56;;;;;;;15.45;12.45;;;;;;;9.33;86.43;100897.47;697818;28;1212;-44
2022/05/03 00:43:50;;;;;;;17.27;13.13;;;;;;;9.29;86.08;100899.19;697520;28;4260;-45
2022/05/03 00:45:26;;;;;;;14.18;12.68;;;;;;;9.28;86.07;100904.41;699482;28;1057;-44
2022/05/03 00:46:01;;;;;;;14.20;12.73;;;;;;;9.27;86.82;100903.53;698796;28;905;-45
2022/05/03 00:46:27;;;;;;;14.77;12.50;;;;;;;9.26;86.87;100903.53;698633;28;4712;-46
2022/05/03 00:46:47;;;;;;;16.58;13.05;;;;;;;9.27;86.87;100902.66;699786;28;965;-45
2022/05/03 00:47:14;;;;;;;16.27;13.13;;;;;;;9.24;87.20;100908.75;699324;28;1114;-45
2022/05/03 00:48:06;;;;;;;15.05;13.05;;;;;;;9.23;87.13;100896.56;700233;28;1046;-44
2022/05/03 00:48:32;;;;;;;15.50;13.45;;;;;;;9.23;87.25;100899.16;699670;28;993;-45
2022/05/03 00:49:11;;;;;;;13.98;12.32;;;;;;;9.25;86.73;100900.06;700336;28;895;-45
2022/05/03 00:49:51;;;;;;;15.77;13.10;;;;;;;9.25;88.24;100905.28;698442;28;4852;-45
2022/05/03 00:50:34;;;;;;;14.20;12.32;;;;;;;9.26;87.34;100901.78;700963;28;1126;-44
2022/05/03 00:51:16;;;;;;;14.70;12.50;;;;;;;9.26;87.37;100898.31;699855;28;899;-45
2022/05/03 00:51:44;;;;;;;13.90;12.38;;;;;;;9.25;87.12;100900.06;699284;28;1182;-44
2022/05/03 00:52:36;;;;;;;14.90;12.63;;;;;;;9.20;87.26;100905.22;698110;28;4271;-45
2022/05/03 00:53:30;;;;;;;17.08;13.10;;;;;;;9.17;88.62;100901.75;696123;28;1127;-44
2022/05/03 00:54:18;;;;;;;16.52;12.85;;;;;;;9.16;87.71;100902.59;699393;28;936;-45
2022/05/03 00:54:46;;;;;;;14.38;12.57;;;;;;;9.17;87.75;100909.56;699156;28;1894;-45
2022/05/03 00:55:30;;;;;;;14.90;12.93;;;;;;;9.16;87.95;100905.22;699013;28;4406;-44
2022/05/03 00:56:09;;;;;;;15.75;13.43;;;;;;;9.10;87.79;100906.06;699123;28;907;-44
2022/05/03 00:56:45;;;;;;;16.27;13.02;;;;;;;9.11;87.97;100901.72;700016;28;1086;-45
2022/05/03 00:57:20;;;;;;;14.88;13.27;;;;;;;9.12;87.11;100908.66;699225;28;1081;-45
2022/05/03 00:57:49;;;;;;;15.95;12.93;;;;;;;9.11;87.84;100902.59;698001;28;1090;-44
2022/05/03 00:58:27;;;;;;;15.60;13.43;;;;;;;9.11;88.04;100906.91;698694;28;4683;-44
2022/05/03 00:59:21;;;;;;;16.40;13.82;;;;;;;9.16;87.10;100902.59;699206;28;1629;-44
2022/05/03 01:00:07;;;;;;;15.55;13.27;;;;;;;9.18;86.83;100908.72;701288;28;1220;-46
2022/05/03 01:00:28;;;;;;;15.77;13.15;;;;;;;9.16;87.61;100907.81;702099;28;1145;-44
2022/05/03 01:01:04;;;;;;;14.75;13.15;;;;;;;9.18;86.07;100909.59;700147;28;1038;-46
2022/05/03 01:01:40;;;;;;;17.80;13.32;;;;;;;9.17;87.80;100913.03;698571;28;4936;-45
2022/05/03 01:02:05;;;;;;;14.80;13.00;;;;;;;9.15;86.94;100920.00;699514;28;1119;-45
2022/05/03 01:02:45;;;;;;;15.13;12.85;;;;;;;9.17;87.70;100914.78;700064;28;954;-45
2022/05/03 01:03:26;;;;;;;15.52;12.85;;;;;;;9.20;89.08;100910.44;700234;28;1945;-44
2022/05/03 01:04:08;;;;;;;15.63;13.52;;;;;;;9.18;89.65;100914.78;699521;28;950;-46
2022/05/03 01:04:54;;;;;;;16.30;14.00;;;;;;;9.20;88.26;100907.84;698853;28;4755;-45
2022/05/03 01:05:22;;;;;;;15.68;13.50;;;;;;;9.15;88.42;100909.56;699679;28;1077;-45
2022/05/03 01:06:18;;;;;;;16.15;13.00;;;;;;;9.16;87.23;100908.69;699826;28;914;-44
2022/05/03 01:06:59;;;;;;;15.43;13.27;;;;;;;9.14;87.35;100910.44;700078;28;915;-45
2022/05/03 01:07:36;;;;;;;15.85;13.43;;;;;;;9.12;87.52;100909.53;699834;28;5885;-45
2022/05/03 01:08:04;;;;;;;16.67;13.65;;;;;;;9.10;87.95;100911.28;700543;27;1023;-46
2022/05/03 01:08:54;;;;;;;15.93;13.60;;;;;;;9.10;88.21;100913.88;702320;27;990;-45
2022/05/03 01:09:19;;;;;;;16.73;12.85;;;;;;;9.10;88.06;100920.84;702135;27;1150;-46
2022/05/03 01:09:42;;;;;;;15.20;13.05;;;;;;;9.10;88.29;100919.09;702838;27;1105;-45
2022/05/03 01:10:21;;;;;;;14.88;13.30;;;;;;;9.06;89.08;100914.72;697825;28;4691;-45
2022/05/03 01:10:53;;;;;;;14.63;12.90;;;;;;;9.07;88.72;100908.66;699631;28;874;-45
2022/05/03 01:11:33;;;;;;;14.75;12.80;;;;;;;9.08;87.92;100915.59;699597;28;895;-45
2022/05/03 01:11:58;;;;;;;14.63;12.77;;;;;;;9.08;87.63;100910.38;700713;28;1038;-45
2022/05/03 01:12:21;;;;;;;16.55;13.00;;;;;;;9.07;87.74;100916.47;699597;28;1019;-45
2022/05/03 01:12:48;;;;;;;16.00;13.15;;;;;;;9.04;88.13;100921.66;699119;28;3637;-45
2022/05/03 01:13:19;;;;;;;16.55;14.00;;;;;;;8.98;88.95;100911.22;700069;27;5421;-45
2022/05/03 01:14:10;;;;;;;16.52;13.75;;;;;;;8.94;89.23;100915.50;700633;28;1067;-45
2022/05/03 01:14:37;;;;;;;14.63;13.13;;;;;;;8.94;88.42;100907.69;700218;28;962;-44
2022/05/03 01:15:17;;;;;;;16.08;13.23;;;;;;;8.93;89.00;100908.59;700163;28;991;-44
2022/05/03 01:15:42;;;;;;;14.95;12.98;;;;;;;8.93;88.74;100907.69;697464;28;1046;-45
2022/05/03 01:16:16;;;;;;;15.18;13.02;;;;;;;8.93;89.04;100912.91;699875;28;4278;-47
2022/05/03 01:16:58;;;;;;;15.65;13.35;;;;;;;8.92;88.31;100904.22;700260;28;1002;-44
2022/05/03 01:17:45;;;;;;;13.93;12.43;;;;;;;8.94;88.19;100901.63;700981;28;1042;-44
2022/05/03 01:18:21;;;;;;;15.10;13.48;;;;;;;8.96;88.71;100902.53;698798;28;1136;-44
2022/05/03 01:19:02;;;;;;;16.13;13.23;;;;;;;8.96;88.67;100905.13;700238;28;910;-45
2022/05/03 01:19:34;;;;;;;14.98;13.10;;;;;;;8.95;89.23;100901.63;699751;28;5017;-44
2022/05/03 01:20:11;;;;;;;15.77;13.77;;;;;;;8.95;88.17;100905.97;699700;28;954;-45
2022/05/03 01:20:42;;;;;;;17.05;13.25;;;;;;;8.94;88.47;100896.41;699434;28;1030;-47
2022/05/03 01:21:13;;;;;;;15.20;12.90;;;;;;;8.96;89.24;100898.16;699535;28;1283;-44
2022/05/03 01:21:45;;;;;;;15.48;12.73;;;;;;;8.99;87.56;100895.56;698761;28;1053;-44
2022/05/03 01:22:16;;;;;;;15.70;12.93;;;;;;;9.03;88.45;100901.69;699049;28;4390;-45
2022/05/03 01:23:06;;;;;;;15.85;12.88;;;;;;;9.07;88.46;100898.22;698099;28;1058;-47
2022/05/03 01:23:48;;;;;;;16.00;12.70;;;;;;;9.03;89.26;100904.28;689935;28;1240;-45
2022/05/03 01:24:37;;;;;;;14.15;12.52;;;;;;;9.08;88.00;100901.69;687885;28;1072;-44
2022/05/03 01:25:13;;;;;;;14.98;13.10;;;;;;;9.06;89.73;100891.25;699289;28;1340;-46
2022/05/03 01:26:04;;;;;;;15.43;13.30;;;;;;;8.92;91.28;100900.75;699986;28;4881;-45
2022/05/03 01:26:46;;;;;;;15.48;13.48;;;;;;;8.85;90.37;100892.88;690171;28;1258;-44
2022/05/03 01:27:26;;;;;;;15.27;13.25;;;;;;;8.96;90.32;100902.53;693685;28;1312;-44
2022/05/03 01:28:00;;;;;;;16.85;13.35;;;;;;;8.97;90.71;100904.25;700566;28;963;-46
2022/05/03 01:28:55;;;;;;;15.90;12.93;;;;;;;8.98;89.24;100901.63;698067;28;4785;-45
2022/05/03 01:29:33;;;;;;;14.68;12.52;;;;;;;8.98;90.38;100898.16;697542;28;1752;-46
2022/05/03 01:30:01;;;;;;;17.35;12.93;;;;;;;8.93;90.09;100899.88;699614;28;962;-44
2022/05/03 01:30:22;;;;;;;14.07;12.57;;;;;;;8.85;90.18;100900.69;701875;28;1164;-44
2022/05/03 01:30:49;;;;;;;14.48;12.73;;;;;;;8.81;90.12;100898.94;694082;28;1376;-44
2022/05/03 01:31:11;;;;;;;14.48;12.45;;;;;;;8.83;89.10;100902.44;695830;28;4270;-44
2022/05/03 01:31:31;;;;;;;13.70;12.13;;;;;;;8.84;90.48;100903.31;694712;28;942;-44
2022/05/03 01:31:57;;;;;;;15.27;13.23;;;;;;;8.81;90.87;100898.94;692095;28;1094;-44
2022/05/03 01:32:21;;;;;;;16.38;13.48;;;;;;;8.75;91.45;100904.13;693756;28;1058;-44
2022/05/03 01:32:43;;;;;;;15.38;13.15;;;;;;;8.74;90.91;100902.38;699267;28;1122;-45
2022/05/03 01:33:08;;;;;;;15.43;13.13;;;;;;;8.72;91.32;100901.47;698874;28;1079;-45
2022/05/03 01:33:36;;;;;;;17.27;13.68;;;;;;;8.73;90.83;100900.63;700666;28;1066;-44
2022/05/03 01:34:01;;;;;;;14.02;12.52;;;;;;;8.78;91.03;100901.53;700222;28;1114;-46
2022/05/03 01:34:24;;;;;;;14.45;12.75;;;;;;;8.79;90.87;100900.69;699526;28;4970;-45
2022/05/03 01:34:46;;;;;;;15.10;13.10;;;;;;;8.83;90.94;100902.44;700097;28;934;-44
2022/05/03 01:35:07;;;;;;;14.70;12.85;;;;;;;8.89;90.21;100900.72;698962;28;1156;-46
2022/05/03 01:35:37;;;;;;;15.83;12.87;;;;;;;8.89;90.47;100898.09;699506;28;1050;-44
2022/05/03 01:35:59;;;;;;;14.13;12.60;;;;;;;8.94;89.09;100899.88;697843;28;1073;-44
2022/05/03 01:36:31;;;;;;;14.18;12.40;;;;;;;8.96;89.75;100897.31;699534;27;835;-45
2022/05/03 01:37:00;;;;;;;14.18;12.32;;;;;;;8.99;88.61;100902.53;700145;28;961;-44
2022/05/03 01:37:42;;;;;;;14.43;12.88;;;;;;;8.89;88.91;100895.50;700012;28;4973;-44
2022/05/03 01:38:18;;;;;;;14.18;12.68;;;;;;;8.88;89.27;100897.25;699397;28;1025;-44
2022/05/03 01:38:51;;;;;;;14.50;12.52;;;;;;;8.85;89.35;100895.50;699775;28;1030;-45
2022/05/03 01:39:28;;;;;;;15.32;13.10;;;;;;;8.80;91.46;100891.97;698139;28;5039;-45
2022/05/03 01:40:04;;;;;;;15.80;13.45;;;;;;;8.73;91.42;100895.41;700132;28;902;-45
2022/05/03 01:40:58;;;;;;;15.77;13.10;;;;;;;8.73;91.63;100898.00;700036;28;5027;-44
2022/05/03 01:41:46;;;;;;;16.15;13.23;;;;;;;8.66;93.81;100886.66;699124;28;1086;-44
2022/05/03 01:42:24;;;;;;;16.85;13.80;;;;;;;8.59;91.40;100892.72;700205;28;1109;-45
2022/05/03 01:42:57;;;;;;;15.13;13.35;;;;;;;8.61;91.75;100890.09;693947;28;1376;-45
2022/05/03 01:43:37;;;;;;;14.32;12.82;;;;;;;8.56;91.85;100891.84;695580;28;4245;-45
2022/05/03 01:44:18;;;;;;;15.90;13.52;;;;;;;8.54;92.10;100888.31;697276;28;982;-45
2022/05/03 01:44:40;;;;;;;15.13;13.52;;;;;;;8.52;91.43;100891.78;695987;28;1182;-45
2022/05/03 01:45:04;;;;;;;14.98;13.13;;;;;;;8.53;91.56;100892.69;698494;28;1075;-44
2022/05/03 01:45:55;;;;;;;14.98;12.95;;;;;;;8.55;91.20;100885.72;699602;28;1288;-44
2022/05/03 01:46:21;;;;;;;16.08;14.05;;;;;;;8.58;91.24;100890.09;698226;28;4466;-44
2022/05/03 01:46:41;;;;;;;17.20;14.10;;;;;;;8.57;91.01;100893.56;700059;28;1205;-46
2022/05/03 01:47:18;;;;;;;16.85;13.35;;;;;;;8.56;91.00;100899.66;700094;27;1030;-45
2022/05/03 01:47:44;;;;;;;16.45;13.85;;;;;;;8.57;91.08;100890.94;699113;28;1014;-45
2022/05/03 01:50:28;;;;;;;16.60;13.77;;;;;;;8.59;93.04;100897.91;700536;28;1126;-45
2022/05/03 01:51:00;;;;;;;14.75;13.15;;;;;;;8.61;91.24;100891.00;699596;28;983;-44
2022/05/03 01:51:43;;;;;;;16.13;13.95;;;;;;;8.62;91.45;100891.88;700306;28;1056;-45
2022/05/03 01:52:25;;;;;;;15.93;13.55;;;;;;;8.62;91.44;100892.72;699153;28;4300;-45
2022/05/03 01:53:12;;;;;;;14.95;13.35;;;;;;;8.63;92.84;100891.00;700233;28;872;-44
2022/05/03 01:53:45;;;;;;;17.50;13.93;;;;;;;8.62;91.87;100891.88;699378;28;865;-45
2022/05/03 01:54:23;;;;;;;15.05;13.35;;;;;;;8.64;91.51;100892.72;698911;28;928;-43
2022/05/03 01:55:08;;;;;;;15.23;13.60;;;;;;;8.66;92.00;100893.63;699957;28;1170;-46
2022/05/03 01:55:46;;;;;;;15.00;13.38;;;;;;;8.67;90.86;100892.78;699506;28;4871;-44
2022/05/03 01:56:22;;;;;;;15.60;13.90;;;;;;;8.71;91.34;100891.03;699264;28;983;-44
2022/05/03 01:57:07;;;;;;;17.45;13.80;;;;;;;8.73;90.72;100899.75;699522;28;1273;-45
2022/05/03 01:57:39;;;;;;;16.70;13.77;;;;;;;8.73;91.53;100890.19;700030;28;903;-44
2022/05/03 01:58:51;;;;;;;16.13;14.10;;;;;;;8.74;91.20;100902.38;697392;28;4556;-45
2022/05/03 01:59:32;;;;;;;16.38;13.90;;;;;;;8.73;90.35;100903.22;692429;28;1438;-46
2022/05/03 02:00:08;;;;;;;16.35;13.40;;;;;;;8.74;90.07;100897.16;694144;28;903;-44
2022/05/03 02:00:35;;;;;;;16.80;14.27;;;;;;;8.74;90.83;100902.38;700169;28;1045;-45
2022/05/03 02:01:02;;;;;;;16.20;13.57;;;;;;;8.75;90.85;100896.31;698998;28;1022;-44
2022/05/03 02:01:41;;;;;;;16.52;13.43;;;;;;;8.88;89.02;100901.59;698698;28;6046;-47
2022/05/03 02:02:48;;;;;;;15.00;13.20;;;;;;;8.89;90.15;100898.09;699761;28;998;-44
2022/05/03 02:03:25;;;;;;;16.65;13.88;;;;;;;8.85;92.50;100903.31;694788;28;1985;-45
2022/05/03 02:03:50;;;;;;;16.38;13.40;;;;;;;8.86;91.58;100901.56;700070;28;958;-44
2022/05/03 02:04:21;;;;;;;16.30;13.35;;;;;;;8.86;91.04;100901.56;696459;28;4287;-45
2022/05/03 02:05:14;;;;;;;17.05;13.70;;;;;;;8.85;90.83;100903.31;700308;28;1107;-45
2022/05/03 02:06:08;;;;;;;15.38;13.73;;;;;;;8.88;91.52;100906.81;687900;28;1056;-45
2022/05/03 02:06:47;;;;;;;17.30;13.70;;;;;;;8.90;90.43;100905.06;689623;28;922;-46
2022/05/03 02:07:19;;;;;;;15.75;13.30;;;;;;;8.92;89.20;100905.97;699088;28;4321;-45
2022/05/03 02:07:55;;;;;;;15.30;13.70;;;;;;;8.90;89.48;100903.31;698737;28;1071;-46
2022/05/03 02:08:21;;;;;;;18.20;13.75;;;;;;;8.91;89.45;100906.81;699334;28;1001;-45
2022/05/03 02:09:01;;;;;;;15.52;13.55;;;;;;;8.94;90.82;100901.63;698510;28;1534;-45
2022/05/03 02:09:28;;;;;;;16.55;14.02;;;;;;;8.98;92.13;100903.38;699600;28;1307;-44
2022/05/03 02:10:18;;;;;;;17.25;13.90;;;;;;;8.95;92.28;100901.63;699953;28;1005;-45
2022/05/03 02:11:01;;;;;;;16.20;13.57;;;;;;;8.88;92.58;100899.84;688587;28;4849;-44
2022/05/03 02:11:56;;;;;;;14.90;13.20;;;;;;;8.88;92.21;100904.22;688517;28;919;-44
2022/05/03 02:12:19;;;;;;;15.48;13.02;;;;;;;8.87;90.55;100900.72;701405;27;1015;-44
2022/05/03 02:12:46;;;;;;;15.85;12.85;;;;;;;8.87;92.47;100900.72;699133;28;1058;-45
2022/05/03 02:14:43;;;;;;;16.95;13.73;;;;;;;8.83;92.95;100904.16;698097;28;4303;-44
2022/05/03 02:15:10;;;;;;;15.55;13.50;;;;;;;8.80;92.46;100901.53;697946;28;1591;-45
2022/05/03 02:15:44;;;;;;;16.23;13.10;;;;;;;8.74;94.36;100894.56;696216;28;1249;-44
2022/05/03 02:16:09;;;;;;;16.92;12.95;;;;;;;8.75;93.82;100898.03;698485;28;4518;-45
2022/05/03 02:16:41;;;;;;;17.02;13.30;;;;;;;8.74;93.31;100891.09;698764;28;1006;-45
2022/05/03 02:17:48;;;;;;;15.60;13.13;;;;;;;8.72;91.65;100895.41;699150;28;1098;-46
2022/05/03 02:18:41;;;;;;;15.60;13.00;;;;;;;8.66;93.87;100893.63;700219;28;1082;-44
2022/05/03 02:19:12;;;;;;;15.05;13.23;;;;;;;8.65;93.49;100887.56;682637;28;4371;-44
2022/05/03 02:20:00;;;;;;;15.13;13.48;;;;;;;8.63;94.73;100893.63;693039;28;1047;-45
2022/05/03 02:20:58;;;;;;;17.23;13.60;;;;;;;8.58;95.01;100890.97;700528;28;1118;-45
2022/05/03 02:21:24;;;;;;;16.52;13.60;;;;;;;8.54;95.15;100891.78;700630;28;1110;-47
2022/05/03 02:21:53;;;;;;;16.75;13.65;;;;;;;8.51;95.34;100892.69;700836;28;1105;-45
2022/05/03 02:22:41;;;;;;;16.55;13.95;;;;;;;8.48;95.60;100890.03;699376;28;4499;-45
2022/05/03 02:23:17;;;;;;;15.77;13.52;;;;;;;8.51;94.23;100889.19;700397;28;1937;-45
2022/05/03 02:23:58;;;;;;;16.90;13.10;;;;;;;8.50;93.69;100888.31;698362;28;1069;-44
2022/05/03 02:24:37;;;;;;;14.45;12.95;;;;;;;8.50;94.93;100888.31;700174;28;1283;-45
2022/05/03 02:25:17;;;;;;;15.82;13.25;;;;;;;8.50;95.57;100883.09;698818;28;1547;-44
2022/05/03 02:25:45;;;;;;;16.23;13.15;;;;;;;8.51;95.78;100886.56;701331;28;4749;-46
2022/05/03 02:26:26;;;;;;;16.88;13.40;;;;;;;8.49;94.06;100886.56;698851;28;1058;-45
2022/05/03 02:26:58;;;;;;;15.07;12.43;;;;;;;8.52;94.40;100883.97;699692;28;986;-45
2022/05/03 02:27:21;;;;;;;15.77;13.73;;;;;;;8.48;94.08;100890.03;699509;28;1095;-44
2022/05/03 02:27:54;;;;;;;16.35;13.63;;;;;;;8.47;93.79;100885.69;698838;28;1201;-44
2022/05/03 02:28:17;;;;;;;14.65;12.73;;;;;;;8.46;94.86;100881.34;698238;27;4541;-44
2022/05/03 02:28:37;;;;;;;15.40;13.15;;;;;;;8.48;93.59;100889.16;698511;28;1130;-45
2022/05/03 02:29:14;;;;;;;16.70;13.77;;;;;;;8.45;93.11;100884.78;699537;28;1168;-46
2022/05/03 02:29:45;;;;;;;15.50;12.98;;;;;;;8.47;92.63;100885.69;698869;28;1014;-45
2022/05/03 02:30:06;;;;;;;14.43;12.93;;;;;;;8.47;94.16;100882.19;699086;28;1152;-44
2022/05/03 02:30:28;;;;;;;15.32;13.45;;;;;;;8.45;93.18;100890.00;700535;28;1653;-45
2022/05/03 02:30:50;;;;;;;16.35;13.32;;;;;;;8.44;91.99;100880.41;697608;28;7967;-46
2022/05/03 02:31:17;;;;;;;15.50;13.65;;;;;;;8.49;92.95;100890.91;696205;27;6067;-46
2022/05/03 02:31:43;;;;;;;16.67;13.35;;;;;;;8.47;94.08;100880.47;698107;28;7397;-44
2022/05/03 02:32:08;;;;;;;15.48;13.43;;;;;;;8.44;93.53;100887.34;698180;28;5633;-45
2022/05/03 02:32:56;;;;;;;16.73;13.13;;;;;;;8.47;92.89;100887.41;700654;28;1357;-46
2022/05/03 02:33:28;;;;;;;14.90;13.30;;;;;;;8.46;94.86;100883.94;700044;28;1238;-44
2022/05/03 02:34:00;;;;;;;15.27;13.30;;;;;;;8.41;94.69;100883.00;699453;28;1201;-45
2022/05/03 02:34:33;;;;;;;15.75;13.18;;;;;;;8.39;94.10;100883.84;698690;28;4449;-44